Palo Verde, California
Current Conditions -  °F | °C
As of 12:52 PM on Sunday 23 Nov 2014 (Local Time) from KBLH Reporting Station
Haze Haze  
Wind Chill: 73°   Ceiling: Unl
Heat Index: 73°   Visibility: 4mi
Dew Point:   Wind: 26mph
Humidity: 8%   Direction: 360°N
Pressure: 30.12"   Gusts: 37mph
Location:  33.43°N, 114.73°W
Report Text: KBLH 232052Z AUTO 36023G32KT 4SM HZ CLR 23/M14 A3012 RMK AO2 PK WND 01036/2023 SLP194 T02281139 57005
Loading
Personal Weather Stations






























Interactive Weather Map New forecast layout! Learn more

10-Day Weather Forecast

Advertisements
Track Severe Weather on mobile